sensor_id;sensor_type;location;lat;lon;timestamp;temperature;humidity
19847;DHT22;10084;50.518;8.588;2023-02-18T04:03:00;20.80;51.20
19847;DHT22;10084;50.518;8.588;2023-02-18T04:05:26;20.80;51.30
19847;DHT22;10084;50.518;8.588;2023-02-18T04:07:51;20.80;51.30
19847;DHT22;10084;50.518;8.588;2023-02-18T04:10:17;20.80;51.30
19847;DHT22;10084;50.518;8.588;2023-02-18T04:12:43;20.80;51.30
19847;DHT22;10084;50.518;8.588;2023-02-18T04:15:09;20.80;51.30
19847;DHT22;10084;50.518;8.588;2023-02-18T04:17:34;20.70;51.30
19847;DHT22;10084;50.518;8.588;2023-02-18T04:20:00;20.80;51.30
19847;DHT22;10084;50.518;8.588;2023-02-18T04:22:26;20.80;51.30
19847;DHT22;10084;50.518;8.588;2023-02-18T04:24:52;20.80;51.30
19847;DHT22;10084;50.518;8.588;2023-02-18T04:27:18;20.80;51.30
19847;DHT22;10084;50.518;8.588;2023-02-18T04:29:43;20.70;51.20
19847;DHT22;10084;50.518;8.588;2023-02-18T04:32:09;20.80;51.20
19847;DHT22;10084;50.518;8.588;2023-02-18T04:34:35;20.80;51.20
19847;DHT22;10084;50.518;8.588;2023-02-18T04:37:00;20.80;51.10
19847;DHT22;10084;50.518;8.588;2023-02-18T04:39:26;20.80;51.10
19847;DHT22;10084;50.518;8.588;2023-02-18T04:41:52;20.80;51.10
19847;DHT22;10084;50.518;8.588;2023-02-18T04:44:18;20.80;51.00
19847;DHT22;10084;50.518;8.588;2023-02-18T04:46:43;20.90;51.10
19847;DHT22;10084;50.518;8.588;2023-02-18T04:49:09;20.90;51.10
19847;DHT22;10084;50.518;8.588;2023-02-18T04:51:35;20.90;51.00
19847;DHT22;10084;50.518;8.588;2023-02-18T04:54:02;20.90;51.00
19847;DHT22;10084;50.518;8.588;2023-02-18T04:56:28;21.00;51.00
19847;DHT22;10084;50.518;8.588;2023-02-18T04:58:54;21.00;50.90
19847;DHT22;10084;50.518;8.588;2023-02-18T05:01:20;21.00;50.80
19847;DHT22;10084;50.518;8.588;2023-02-18T05:03:45;21.10;50.80
19847;DHT22;10084;50.518;8.588;2023-02-18T05:06:11;21.10;50.80
19847;DHT22;10084;50.518;8.588;2023-02-18T05:08:37;21.10;50.70
19847;DHT22;10084;50.518;8.588;2023-02-18T05:11:07;21.10;50.70
19847;DHT22;10084;50.518;8.588;2023-02-18T05:13:32;21.20;50.70
19847;DHT22;10084;50.518;8.588;2023-02-18T05:15:59;21.20;50.60
19847;DHT22;10084;50.518;8.588;2023-02-18T05:18:24;21.20;50.60
19847;DHT22;10084;50.518;8.588;2023-02-18T05:20:50;21.20;50.60
19847;DHT22;10084;50.518;8.588;2023-02-18T05:23:16;21.20;50.50
19847;DHT22;10084;50.518;8.588;2023-02-18T05:25:44;21.30;50.50
19847;DHT22;10084;50.518;8.588;2023-02-18T05:28:10;21.30;50.50
19847;DHT22;10084;50.518;8.588;2023-02-18T05:30:36;21.30;50.50
19847;DHT22;10084;50.518;8.588;2023-02-18T05:33:01;21.30;50.50
19847;DHT22;10084;50.518;8.588;2023-02-18T05:35:27;21.30;50.50
19847;DHT22;10084;50.518;8.588;2023-02-18T05:37:53;21.30;50.40
19847;DHT22;10084;50.518;8.588;2023-02-18T05:40:18;21.30;50.40
19847;DHT22;10084;50.518;8.588;2023-02-18T05:42:44;21.30;50.40
19847;DHT22;10084;50.518;8.588;2023-02-18T05:45:10;21.30;50.30
19847;DHT22;10084;50.518;8.588;2023-02-18T05:47:36;21.30;50.30
19847;DHT22;10084;50.518;8.588;2023-02-18T05:50:02;21.30;50.30
19847;DHT22;10084;50.518;8.588;2023-02-18T05:52:28;21.30;50.20
19847;DHT22;10084;50.518;8.588;2023-02-18T05:54:54;21.40;50.30
19847;DHT22;10084;50.518;8.588;2023-02-18T05:57:19;21.40;50.20
19847;DHT22;10084;50.518;8.588;2023-02-18T05:59:45;21.40;50.20
19847;DHT22;10084;50.518;8.588;2023-02-18T06:02:11;21.40;50.10
19847;DHT22;10084;50.518;8.588;2023-02-18T06:04:36;21.40;50.20
19847;DHT22;10084;50.518;8.588;2023-02-18T06:07:02;21.40;50.10
19847;DHT22;10084;50.518;8.588;2023-02-18T06:09:28;21.40;50.10
19847;DHT22;10084;50.518;8.588;2023-02-18T06:11:54;21.40;50.00
19847;DHT22;10084;50.518;8.588;2023-02-18T06:14:19;21.40;50.00
19847;DHT22;10084;50.518;8.588;2023-02-18T06:16:45;21.40;50.00
19847;DHT22;10084;50.518;8.588;2023-02-18T06:19:11;21.50;50.00
19847;DHT22;10084;50.518;8.588;2023-02-18T06:21:36;21.50;50.00
19847;DHT22;10084;50.518;8.588;2023-02-18T06:24:02;21.50;50.00
19847;DHT22;10084;50.518;8.588;2023-02-18T06:26:28;21.50;50.00
19847;DHT22;10084;50.518;8.588;2023-02-18T06:28:54;21.50;49.90
19847;DHT22;10084;50.518;8.588;2023-02-18T06:31:19;21.50;49.90
19847;DHT22;10084;50.518;8.588;2023-02-18T06:33:45;21.50;49.90
19847;DHT22;10084;50.518;8.588;2023-02-18T06:36:12;21.50;49.80
19847;DHT22;10084;50.518;8.588;2023-02-18T06:38:39;21.50;49.80
19847;DHT22;10084;50.518;8.588;2023-02-18T06:41:06;21.60;49.80
19847;DHT22;10084;50.518;8.588;2023-02-18T06:43:32;21.60;49.80
19847;DHT22;10084;50.518;8.588;2023-02-18T06:45:57;21.60;49.80
19847;DHT22;10084;50.518;8.588;2023-02-18T06:48:23;21.60;49.80
19847;DHT22;10084;50.518;8.588;2023-02-18T06:50:49;21.60;49.70
19847;DHT22;10084;50.518;8.588;2023-02-18T06:53:15;21.60;49.70
19847;DHT22;10084;50.518;8.588;2023-02-18T06:55:44;21.60;49.60
19847;DHT22;10084;50.518;8.588;2023-02-18T06:58:11;21.60;49.60
19847;DHT22;10084;50.518;8.588;2023-02-18T07:00:38;21.70;49.60
19847;DHT22;10084;50.518;8.588;2023-02-18T07:03:04;21.70;49.60
19847;DHT22;10084;50.518;8.588;2023-02-18T07:05:31;21.70;49.60
19847;DHT22;10084;50.518;8.588;2023-02-18T07:07:57;21.70;49.50
19847;DHT22;10084;50.518;8.588;2023-02-18T07:10:22;21.70;49.60
19847;DHT22;10084;50.518;8.588;2023-02-18T07:12:48;21.60;49.50
19847;DHT22;10084;50.518;8.588;2023-02-18T07:15:14;21.70;49.60
19847;DHT22;10084;50.518;8.588;2023-02-18T07:17:40;21.60;49.40
19847;DHT22;10084;50.518;8.588;2023-02-18T07:20:07;21.60;50.10
19847;DHT22;10084;50.518;8.588;2023-02-18T07:22:33;21.70;49.40
19847;DHT22;10084;50.518;8.588;2023-02-18T07:24:58;21.70;49.40
19847;DHT22;10084;50.518;8.588;2023-02-18T07:27:24;21.70;49.40
19847;DHT22;10084;50.518;8.588;2023-02-18T07:29:50;21.70;49.40
19847;DHT22;10084;50.518;8.588;2023-02-18T07:32:17;21.70;49.30
19847;DHT22;10084;50.518;8.588;2023-02-18T07:34:43;21.70;49.30
19847;DHT22;10084;50.518;8.588;2023-02-18T07:37:09;21.70;49.20
19847;DHT22;10084;50.518;8.588;2023-02-18T07:39:41;21.70;49.20
19847;DHT22;10084;50.518;8.588;2023-02-18T07:42:07;21.70;49.20
19847;DHT22;10084;50.518;8.588;2023-02-18T07:44:34;21.70;49.20
19847;DHT22;10084;50.518;8.588;2023-02-18T07:47:00;21.70;49.10
19847;DHT22;10084;50.518;8.588;2023-02-18T07:49:27;21.70;49.10
19847;DHT22;10084;50.518;8.588;2023-02-18T07:51:53;21.70;49.10
19847;DHT22;10084;50.518;8.588;2023-02-18T07:54:19;21.70;49.00
19847;DHT22;10084;50.518;8.588;2023-02-18T07:56:45;21.70;49.00
19847;DHT22;10084;50.518;8.588;2023-02-18T07:59:12;21.80;49.00
19847;DHT22;10084;50.518;8.588;2023-02-18T08:01:38;21.70;49.00
19847;DHT22;10084;50.518;8.588;2023-02-18T08:04:04;21.80;49.00
19847;DHT22;10084;50.518;8.588;2023-02-18T08:06:34;21.80;49.00
19847;DHT22;10084;50.518;8.588;2023-02-18T08:09:00;21.80;48.90
19847;DHT22;10084;50.518;8.588;2023-02-18T08:11:25;21.80;48.90
19847;DHT22;10084;50.518;8.588;2023-02-18T08:13:51;21.80;48.90
19847;DHT22;10084;50.518;8.588;2023-02-18T08:16:18;21.80;48.80
19847;DHT22;10084;50.518;8.588;2023-02-18T08:18:45;21.80;48.80
19847;DHT22;10084;50.518;8.588;2023-02-18T08:21:13;21.80;48.80
19847;DHT22;10084;50.518;8.588;2023-02-18T08:23:39;21.80;48.80
19847;DHT22;10084;50.518;8.588;2023-02-18T08:26:05;21.80;48.80
19847;DHT22;10084;50.518;8.588;2023-02-18T08:28:41;21.80;48.80
19847;DHT22;10084;50.518;8.588;2023-02-18T08:31:15;21.80;48.80
19847;DHT22;10084;50.518;8.588;2023-02-18T08:33:41;21.70;48.70
19847;DHT22;10084;50.518;8.588;2023-02-18T08:36:07;21.80;48.70
19847;DHT22;10084;50.518;8.588;2023-02-18T08:38:34;21.80;48.70
19847;DHT22;10084;50.518;8.588;2023-02-18T08:41:05;21.70;48.60
19847;DHT22;10084;50.518;8.588;2023-02-18T08:43:31;21.80;48.70
19847;DHT22;10084;50.518;8.588;2023-02-18T08:45:57;21.70;48.60
19847;DHT22;10084;50.518;8.588;2023-02-18T08:48:23;21.70;48.60
19847;DHT22;10084;50.518;8.588;2023-02-18T08:50:49;21.70;49.30
19847;DHT22;10084;50.518;8.588;2023-02-18T08:53:16;21.70;48.60
19847;DHT22;10084;50.518;8.588;2023-02-18T08:55:42;21.70;48.60
19847;DHT22;10084;50.518;8.588;2023-02-18T08:58:08;21.70;48.60
19847;DHT22;10084;50.518;8.588;2023-02-18T09:00:35;21.70;48.60
19847;DHT22;10084;50.518;8.588;2023-02-18T09:03:00;21.70;48.60
19847;DHT22;10084;50.518;8.588;2023-02-18T09:05:26;21.70;48.50
19847;DHT22;10084;50.518;8.588;2023-02-18T09:07:52;21.70;48.50
19847;DHT22;10084;50.518;8.588;2023-02-18T09:10:18;21.70;48.50
19847;DHT22;10084;50.518;8.588;2023-02-18T09:12:44;21.70;48.40
19847;DHT22;10084;50.518;8.588;2023-02-18T09:15:10;21.70;48.40
19847;DHT22;10084;50.518;8.588;2023-02-18T09:17:35;21.70;48.40
19847;DHT22;10084;50.518;8.588;2023-02-18T09:20:01;21.70;48.40
19847;DHT22;10084;50.518;8.588;2023-02-18T09:22:27;21.80;48.40
19847;DHT22;10084;50.518;8.588;2023-02-18T09:24:53;21.80;48.40
19847;DHT22;10084;50.518;8.588;2023-02-18T09:27:18;21.80;48.40
19847;DHT22;10084;50.518;8.588;2023-02-18T09:29:45;21.80;48.30
19847;DHT22;10084;50.518;8.588;2023-02-18T09:32:11;21.80;48.30
19847;DHT22;10084;50.518;8.588;2023-02-18T09:34:37;21.80;48.30
19847;DHT22;10084;50.518;8.588;2023-02-18T09:37:03;21.80;48.30
19847;DHT22;10084;50.518;8.588;2023-02-18T09:39:29;21.80;49.00
19847;DHT22;10084;50.518;8.588;2023-02-18T09:41:57;21.80;48.20
19847;DHT22;10084;50.518;8.588;2023-02-18T09:46:56;21.90;48.30
19847;DHT22;10084;50.518;8.588;2023-02-18T09:49:29;21.90;48.30
19847;DHT22;10084;50.518;8.588;2023-02-18T09:52:13;21.90;48.30
19847;DHT22;10084;50.518;8.588;2023-02-18T09:54:39;21.90;48.30
19847;DHT22;10084;50.518;8.588;2023-02-18T09:57:06;21.90;48.30
19847;DHT22;10084;50.518;8.588;2023-02-18T09:59:40;21.90;48.20
19847;DHT22;10084;50.518;8.588;2023-02-18T10:02:10;21.90;48.30
19847;DHT22;10084;50.518;8.588;2023-02-18T10:04:43;21.90;48.30
19847;DHT22;10084;50.518;8.588;2023-02-18T10:07:42;21.90;48.30
19847;DHT22;10084;50.518;8.588;2023-02-18T10:10:20;22.00;48.30
19847;DHT22;10084;50.518;8.588;2023-02-18T10:12:49;22.00;48.40
19847;DHT22;10084;50.518;8.588;2023-02-18T10:15:21;22.00;48.40
19847;DHT22;10084;50.518;8.588;2023-02-18T10:17:47;22.00;48.40
19847;DHT22;10084;50.518;8.588;2023-02-18T10:20:22;22.00;48.40
19847;DHT22;10084;50.518;8.588;2023-02-18T10:22:49;22.00;48.30
19847;DHT22;10084;50.518;8.588;2023-02-18T10:25:20;21.90;47.80
19847;DHT22;10084;50.518;8.588;2023-02-18T10:27:48;21.70;47.30
19847;DHT22;10084;50.518;8.588;2023-02-18T10:30:35;21.50;47.30
19847;DHT22;10084;50.518;8.588;2023-02-18T10:35:48;21.20;47.40
19847;DHT22;10084;50.518;8.588;2023-02-18T10:41:13;21.00;47.50
19847;DHT22;10084;50.518;8.588;2023-02-18T10:51:50;20.60;47.50
19847;DHT22;10084;50.518;8.588;2023-02-18T10:54:17;20.60;47.60
19847;DHT22;10084;50.518;8.588;2023-02-18T10:56:49;20.60;47.60
19847;DHT22;10084;50.518;8.588;2023-02-18T10:59:23;20.50;47.60
19847;DHT22;10084;50.518;8.588;2023-02-18T11:04:27;20.50;47.80
19847;DHT22;10084;50.518;8.588;2023-02-18T11:07:03;20.40;47.70
19847;DHT22;10084;50.518;8.588;2023-02-18T11:12:14;20.40;47.70
19847;DHT22;10084;50.518;8.588;2023-02-18T11:14:47;20.30;47.70
19847;DHT22;10084;50.518;8.588;2023-02-18T11:17:34;20.30;47.70
19847;DHT22;10084;50.518;8.588;2023-02-18T11:20:31;20.20;47.50
19847;DHT22;10084;50.518;8.588;2023-02-18T11:23:14;20.20;47.40
19847;DHT22;10084;50.518;8.588;2023-02-18T11:25:58;20.10;47.40
19847;DHT22;10084;50.518;8.588;2023-02-18T11:28:39;20.00;47.30
19847;DHT22;10084;50.518;8.588;2023-02-18T11:31:07;19.90;47.50
19847;DHT22;10084;50.518;8.588;2023-02-18T11:33:40;19.90;47.60
19847;DHT22;10084;50.518;8.588;2023-02-18T11:36:28;20.00;47.70
19847;DHT22;10084;50.518;8.588;2023-02-18T11:38:59;20.00;47.80
19847;DHT22;10084;50.518;8.588;2023-02-18T11:41:40;20.10;47.90
19847;DHT22;10084;50.518;8.588;2023-02-18T11:44:28;20.10;47.80
19847;DHT22;10084;50.518;8.588;2023-02-18T11:47:18;20.10;47.80
19847;DHT22;10084;50.518;8.588;2023-02-18T11:50:00;20.10;47.80
19847;DHT22;10084;50.518;8.588;2023-02-18T11:52:32;20.10;47.70
19847;DHT22;10084;50.518;8.588;2023-02-18T11:58:23;20.00;47.70
19847;DHT22;10084;50.518;8.588;2023-02-18T12:01:05;20.10;47.80
19847;DHT22;10084;50.518;8.588;2023-02-18T12:03:47;20.00;47.80
19847;DHT22;10084;50.518;8.588;2023-02-18T12:06:26;20.00;47.90
19847;DHT22;10084;50.518;8.588;2023-02-18T12:09:28;20.00;48.00
19847;DHT22;10084;50.518;8.588;2023-02-18T12:12:02;19.90;48.00
19847;DHT22;10084;50.518;8.588;2023-02-18T12:14:31;19.90;48.10
19847;DHT22;10084;50.518;8.588;2023-02-18T12:17:25;19.90;48.20
19847;DHT22;10084;50.518;8.588;2023-02-18T12:22:42;19.90;48.30
19847;DHT22;10084;50.518;8.588;2023-02-18T12:25:33;19.90;48.50
19847;DHT22;10084;50.518;8.588;2023-02-18T12:48:10;19.80;49.20
19847;DHT22;10084;50.518;8.588;2023-02-18T12:51:03;19.70;49.30
19847;DHT22;10084;50.518;8.588;2023-02-18T12:53:39;19.70;49.50
19847;DHT22;10084;50.518;8.588;2023-02-18T13:01:36;19.50;49.90
19847;DHT22;10084;50.518;8.588;2023-02-18T13:18:05;19.20;50.90
19847;DHT22;10084;50.518;8.588;2023-02-18T13:20:42;19.20;51.20
19847;DHT22;10084;50.518;8.588;2023-02-18T13:23:19;19.10;52.10
19847;DHT22;10084;50.518;8.588;2023-02-18T13:25:48;19.10;51.60
19847;DHT22;10084;50.518;8.588;2023-02-18T13:38:53;19.00;52.00
19847;DHT22;10084;50.518;8.588;2023-02-18T13:41:21;19.00;52.20
19847;DHT22;10084;50.518;8.588;2023-02-18T13:43:47;18.90;52.00
19847;DHT22;10084;50.518;8.588;2023-02-18T13:48:51;18.90;52.30
19847;DHT22;10084;50.518;8.588;2023-02-18T13:51:32;18.90;52.40
19847;DHT22;10084;50.518;8.588;2023-02-18T13:56:43;18.90;52.70
19847;DHT22;10084;50.518;8.588;2023-02-18T13:59:19;18.90;52.80
19847;DHT22;10084;50.518;8.588;2023-02-18T14:01:49;18.90;52.80
19847;DHT22;10084;50.518;8.588;2023-02-18T14:10:27;19.10;53.10
19847;DHT22;10084;50.518;8.588;2023-02-18T14:24:43;19.40;53.20
19847;DHT22;10084;50.518;8.588;2023-02-18T14:27:15;19.50;53.10
19847;DHT22;10084;50.518;8.588;2023-02-18T14:29:42;19.60;53.10
19847;DHT22;10084;50.518;8.588;2023-02-18T14:32:11;19.60;53.00
19847;DHT22;10084;50.518;8.588;2023-02-18T14:34:57;19.70;53.00
19847;DHT22;10084;50.518;8.588;2023-02-18T14:43:32;19.90;52.90
19847;DHT22;10084;50.518;8.588;2023-02-18T14:48:56;20.00;52.90
19847;DHT22;10084;50.518;8.588;2023-02-18T14:51:30;20.10;52.80
19847;DHT22;10084;50.518;8.588;2023-02-18T14:54:03;20.10;52.70
19847;DHT22;10084;50.518;8.588;2023-02-18T14:56:31;20.10;52.60
19847;DHT22;10084;50.518;8.588;2023-02-18T14:59:02;20.20;52.60
19847;DHT22;10084;50.518;8.588;2023-02-18T15:01:32;20.20;52.60
19847;DHT22;10084;50.518;8.588;2023-02-18T15:04:00;20.20;52.60
19847;DHT22;10084;50.518;8.588;2023-02-18T15:06:34;20.20;52.60
19847;DHT22;10084;50.518;8.588;2023-02-18T15:09:16;20.30;52.70
19847;DHT22;10084;50.518;8.588;2023-02-18T15:11:50;20.30;52.60
19847;DHT22;10084;50.518;8.588;2023-02-18T15:14:37;20.40;52.60
19847;DHT22;10084;50.518;8.588;2023-02-18T15:17:06;20.40;52.60
19847;DHT22;10084;50.518;8.588;2023-02-18T15:19:42;20.50;52.50
19847;DHT22;10084;50.518;8.588;2023-02-18T15:22:17;20.50;52.40
19847;DHT22;10084;50.518;8.588;2023-02-18T15:24:44;20.50;52.40
19847;DHT22;10084;50.518;8.588;2023-02-18T15:27:25;20.60;52.40
19847;DHT22;10084;50.518;8.588;2023-02-18T15:32:30;20.60;52.30
19847;DHT22;10084;50.518;8.588;2023-02-18T15:35:14;20.70;52.30
19847;DHT22;10084;50.518;8.588;2023-02-18T15:37:44;20.70;52.90
19847;DHT22;10084;50.518;8.588;2023-02-18T15:40:17;20.70;52.20
19847;DHT22;10084;50.518;8.588;2023-02-18T15:42:46;20.80;52.20
19847;DHT22;10084;50.518;8.588;2023-02-18T15:47:44;20.90;52.10
19847;DHT22;10084;50.518;8.588;2023-02-18T15:50:17;20.90;52.10
19847;DHT22;10084;50.518;8.588;2023-02-18T15:52:44;20.90;52.00
19847;DHT22;10084;50.518;8.588;2023-02-18T15:55:40;21.00;52.00
19847;DHT22;10084;50.518;8.588;2023-02-18T15:58:13;21.00;52.00
19847;DHT22;10084;50.518;8.588;2023-02-18T16:00:54;21.00;51.90
19847;DHT22;10084;50.518;8.588;2023-02-18T16:03:24;21.00;51.80
19847;DHT22;10084;50.518;8.588;2023-02-18T16:05:51;21.00;51.70
19847;DHT22;10084;50.518;8.588;2023-02-18T16:08:31;21.00;51.70
19847;DHT22;10084;50.518;8.588;2023-02-18T16:11:09;21.00;51.60
19847;DHT22;10084;50.518;8.588;2023-02-18T16:13:43;21.10;51.70
19847;DHT22;10084;50.518;8.588;2023-02-18T16:16:42;21.10;51.70
19847;DHT22;10084;50.518;8.588;2023-02-18T16:19:23;21.00;51.60
19847;DHT22;10084;50.518;8.588;2023-02-18T16:21:49;21.10;51.60
19847;DHT22;10084;50.518;8.588;2023-02-18T16:24:25;21.10;51.60
19847;DHT22;10084;50.518;8.588;2023-02-18T16:26:59;21.10;51.60
19847;DHT22;10084;50.518;8.588;2023-02-18T16:29:26;21.10;51.60
19847;DHT22;10084;50.518;8.588;2023-02-18T16:31:58;21.10;51.50
19847;DHT22;10084;50.518;8.588;2023-02-18T16:34:24;21.20;51.50
19847;DHT22;10084;50.518;8.588;2023-02-18T16:36:50;21.20;51.50
19847;DHT22;10084;50.518;8.588;2023-02-18T16:39:34;21.20;51.40
19847;DHT22;10084;50.518;8.588;2023-02-18T16:42:00;21.20;51.40
19847;DHT22;10084;50.518;8.588;2023-02-18T16:44:27;21.20;51.40
19847;DHT22;10084;50.518;8.588;2023-02-18T16:46:52;21.20;51.30
19847;DHT22;10084;50.518;8.588;2023-02-18T16:49:18;21.20;51.30
19847;DHT22;10084;50.518;8.588;2023-02-18T16:51:45;21.30;51.30
19847;DHT22;10084;50.518;8.588;2023-02-18T16:54:12;21.30;51.30
19847;DHT22;10084;50.518;8.588;2023-02-18T16:56:38;21.30;51.20
19847;DHT22;10084;50.518;8.588;2023-02-18T16:59:04;21.30;51.20
19847;DHT22;10084;50.518;8.588;2023-02-18T17:01:35;21.30;51.10
19847;DHT22;10084;50.518;8.588;2023-02-18T17:04:04;21.40;51.20
19847;DHT22;10084;50.518;8.588;2023-02-18T17:06:32;21.40;51.10
19847;DHT22;10084;50.518;8.588;2023-02-18T17:08:59;21.40;51.10
19847;DHT22;10084;50.518;8.588;2023-02-18T17:11:29;21.40;51.00
19847;DHT22;10084;50.518;8.588;2023-02-18T17:13:55;21.40;51.00
19847;DHT22;10084;50.518;8.588;2023-02-18T17:16:26;21.40;51.00
19847;DHT22;10084;50.518;8.588;2023-02-18T17:18:52;21.40;51.00
19847;DHT22;10084;50.518;8.588;2023-02-18T17:21:23;21.50;51.00
19847;DHT22;10084;50.518;8.588;2023-02-18T17:23:49;21.50;51.00
19847;DHT22;10084;50.518;8.588;2023-02-18T17:26:26;21.50;51.00
19847;DHT22;10084;50.518;8.588;2023-02-18T17:28:54;21.50;50.90
19847;DHT22;10084;50.518;8.588;2023-02-18T17:31:28;21.50;50.80
19847;DHT22;10084;50.518;8.588;2023-02-18T17:33:57;21.50;50.80
19847;DHT22;10084;50.518;8.588;2023-02-18T17:36:24;21.50;50.80
19847;DHT22;10084;50.518;8.588;2023-02-18T17:38:50;21.60;50.80
19847;DHT22;10084;50.518;8.588;2023-02-18T17:41:16;21.60;50.80
19847;DHT22;10084;50.518;8.588;2023-02-18T17:43:42;21.60;50.70
19847;DHT22;10084;50.518;8.588;2023-02-18T17:46:13;21.60;50.70
19847;DHT22;10084;50.518;8.588;2023-02-18T17:48:39;21.70;50.80
19847;DHT22;10084;50.518;8.588;2023-02-18T17:51:06;21.70;50.70
19847;DHT22;10084;50.518;8.588;2023-02-18T17:53:34;21.70;50.70
19847;DHT22;10084;50.518;8.588;2023-02-18T17:56:00;21.70;50.60
19847;DHT22;10084;50.518;8.588;2023-02-18T17:58:26;21.70;50.60
19847;DHT22;10084;50.518;8.588;2023-02-18T18:00:54;21.70;50.60
19847;DHT22;10084;50.518;8.588;2023-02-18T18:03:21;21.70;50.50
19847;DHT22;10084;50.518;8.588;2023-02-18T18:05:48;21.70;50.50
19847;DHT22;10084;50.518;8.588;2023-02-18T18:08:15;21.70;50.50
19847;DHT22;10084;50.518;8.588;2023-02-18T18:10:48;21.80;50.50
19847;DHT22;10084;50.518;8.588;2023-02-18T18:13:22;21.80;50.40
19847;DHT22;10084;50.518;8.588;2023-02-18T18:15:49;21.70;50.30
19847;DHT22;10084;50.518;8.588;2023-02-18T18:18:15;21.70;50.30
19847;DHT22;10084;50.518;8.588;2023-02-18T18:20:45;21.70;50.30
19847;DHT22;10084;50.518;8.588;2023-02-18T18:23:14;21.70;50.30
19847;DHT22;10084;50.518;8.588;2023-02-18T18:25:45;21.70;50.30
19847;DHT22;10084;50.518;8.588;2023-02-18T18:28:12;21.70;50.30
19847;DHT22;10084;50.518;8.588;2023-02-18T18:30:40;21.70;50.20
19847;DHT22;10084;50.518;8.588;2023-02-18T18:33:17;21.70;50.20
19847;DHT22;10084;50.518;8.588;2023-02-18T18:35:45;21.70;50.20
19847;DHT22;10084;50.518;8.588;2023-02-18T18:38:13;21.70;50.20
19847;DHT22;10084;50.518;8.588;2023-02-18T18:40:39;21.70;50.20
19847;DHT22;10084;50.518;8.588;2023-02-18T18:43:05;21.70;50.10
19847;DHT22;10084;50.518;8.588;2023-02-18T18:45:33;21.70;50.10
19847;DHT22;10084;50.518;8.588;2023-02-18T18:48:03;21.80;50.10
19847;DHT22;10084;50.518;8.588;2023-02-18T18:50:29;21.80;50.10
19847;DHT22;10084;50.518;8.588;2023-02-18T18:52:55;21.80;50.10
19847;DHT22;10084;50.518;8.588;2023-02-18T18:55:32;21.80;50.10
19847;DHT22;10084;50.518;8.588;2023-02-18T18:57:59;21.80;50.00
19847;DHT22;10084;50.518;8.588;2023-02-18T19:00:29;21.80;50.00
19847;DHT22;10084;50.518;8.588;2023-02-18T19:02:55;21.80;50.00
19847;DHT22;10084;50.518;8.588;2023-02-18T19:05:30;21.80;50.00
19847;DHT22;10084;50.518;8.588;2023-02-18T19:07:57;21.80;50.00
19847;DHT22;10084;50.518;8.588;2023-02-18T19:10:25;21.80;49.90
19847;DHT22;10084;50.518;8.588;2023-02-18T19:12:51;21.80;49.90
19847;DHT22;10084;50.518;8.588;2023-02-18T19:15:20;21.90;49.90
19847;DHT22;10084;50.518;8.588;2023-02-18T19:17:49;21.80;49.90
19847;DHT22;10084;50.518;8.588;2023-02-18T19:20:20;21.90;49.90
19847;DHT22;10084;50.518;8.588;2023-02-18T19:22:46;21.90;49.80
19847;DHT22;10084;50.518;8.588;2023-02-18T19:25:12;21.90;49.90
19847;DHT22;10084;50.518;8.588;2023-02-18T19:27:39;21.90;49.80
19847;DHT22;10084;50.518;8.588;2023-02-18T19:30:07;21.90;49.80
19847;DHT22;10084;50.518;8.588;2023-02-18T19:32:33;21.90;49.70
19847;DHT22;10084;50.518;8.588;2023-02-18T19:34:59;21.90;49.70
19847;DHT22;10084;50.518;8.588;2023-02-18T19:37:25;21.90;49.70
19847;DHT22;10084;50.518;8.588;2023-02-18T19:39:51;21.90;49.70
19847;DHT22;10084;50.518;8.588;2023-02-18T19:42:16;21.90;49.70
19847;DHT22;10084;50.518;8.588;2023-02-18T19:44:42;21.90;49.60
19847;DHT22;10084;50.518;8.588;2023-02-18T19:47:08;21.90;49.60
19847;DHT22;10084;50.518;8.588;2023-02-18T19:49:33;21.90;49.60
19847;DHT22;10084;50.518;8.588;2023-02-18T19:51:59;21.90;49.60
19847;DHT22;10084;50.518;8.588;2023-02-18T19:54:30;21.90;49.50
19847;DHT22;10084;50.518;8.588;2023-02-18T19:56:57;21.90;49.50
19847;DHT22;10084;50.518;8.588;2023-02-18T19:59:23;21.90;49.50
19847;DHT22;10084;50.518;8.588;2023-02-18T20:01:49;21.90;49.50
19847;DHT22;10084;50.518;8.588;2023-02-18T20:04:14;21.90;49.40
19847;DHT22;10084;50.518;8.588;2023-02-18T20:06:40;21.90;49.40
19847;DHT22;10084;50.518;8.588;2023-02-18T20:09:06;22.00;49.50
19847;DHT22;10084;50.518;8.588;2023-02-18T20:11:31;22.00;49.40
19847;DHT22;10084;50.518;8.588;2023-02-18T20:13:57;22.00;49.40
19847;DHT22;10084;50.518;8.588;2023-02-18T20:16:23;22.00;49.40
19847;DHT22;10084;50.518;8.588;2023-02-18T20:18:48;22.00;49.30
19847;DHT22;10084;50.518;8.588;2023-02-18T20:21:14;22.00;49.30
19847;DHT22;10084;50.518;8.588;2023-02-18T20:23:40;22.00;49.30
19847;DHT22;10084;50.518;8.588;2023-02-18T20:26:08;22.00;49.30
19847;DHT22;10084;50.518;8.588;2023-02-18T20:28:34;22.00;49.20
19847;DHT22;10084;50.518;8.588;2023-02-18T20:31:07;22.00;49.20
19847;DHT22;10084;50.518;8.588;2023-02-18T20:33:35;22.00;49.20
19847;DHT22;10084;50.518;8.588;2023-02-18T20:36:01;22.00;49.20
19847;DHT22;10084;50.518;8.588;2023-02-18T20:38:33;22.00;49.20
19847;DHT22;10084;50.518;8.588;2023-02-18T20:41:10;22.00;49.20
19847;DHT22;10084;50.518;8.588;2023-02-18T20:43:38;22.00;49.10
19847;DHT22;10084;50.518;8.588;2023-02-18T20:46:07;22.00;49.10
19847;DHT22;10084;50.518;8.588;2023-02-18T20:48:34;22.00;49.10
19847;DHT22;10084;50.518;8.588;2023-02-18T20:51:04;22.00;49.10
19847;DHT22;10084;50.518;8.588;2023-02-18T20:53:31;22.00;49.10
19847;DHT22;10084;50.518;8.588;2023-02-18T20:55:58;22.00;49.10
19847;DHT22;10084;50.518;8.588;2023-02-18T20:58:24;22.00;49.10
19847;DHT22;10084;50.518;8.588;2023-02-18T21:03:21;22.00;49.00
19847;DHT22;10084;50.518;8.588;2023-02-18T21:05:56;21.90;49.00
19847;DHT22;10084;50.518;8.588;2023-02-18T21:08:23;21.90;48.90
19847;DHT22;10084;50.518;8.588;2023-02-18T21:10:49;21.90;48.90
19847;DHT22;10084;50.518;8.588;2023-02-18T21:13:19;21.90;48.90
19847;DHT22;10084;50.518;8.588;2023-02-18T21:15:45;21.90;48.90
19847;DHT22;10084;50.518;8.588;2023-02-18T21:18:12;21.90;49.00
19847;DHT22;10084;50.518;8.588;2023-02-18T21:20:38;21.90;48.90
19847;DHT22;10084;50.518;8.588;2023-02-18T21:23:04;21.90;49.00
19847;DHT22;10084;50.518;8.588;2023-02-18T21:25:30;21.80;49.00
19847;DHT22;10084;50.518;8.588;2023-02-18T21:27:56;21.80;48.90
19847;DHT22;10084;50.518;8.588;2023-02-18T21:30:22;21.80;49.00
19847;DHT22;10084;50.518;8.588;2023-02-18T21:32:48;21.80;49.00
19847;DHT22;10084;50.518;8.588;2023-02-18T21:35:14;21.70;49.00
19847;DHT22;10084;50.518;8.588;2023-02-18T21:37:44;21.70;49.00
19847;DHT22;10084;50.518;8.588;2023-02-18T21:40:10;21.70;49.00
19847;DHT22;10084;50.518;8.588;2023-02-18T21:42:36;21.70;49.10